Time;durP1;ratioP1;P1;durP2;ratioP2;P2;SDS_P1;SDS_P2;PMS_P1;PMS_P2;Temp;Humidity;BMP_temperature;BMP_pressure;BME280_temperature;BME280_humidity;BME280_pressure;Samples;Min_cycle;Max_cycle;Signal;HPM_P1;HPM_P2
2021/08/02 00:01:45;;;;;;;;;;;17.00;99.90;;;;;;5073805;28;20383;-80
2021/08/02 00:04:10;;;;;;;;;;;17.20;99.90;;;;;;5073770;28;19947;-80
2021/08/02 00:06:47;;;;;;;;;;;17.10;99.90;;;;;;5074316;28;19952;-80
2021/08/02 00:09:14;;;;;;;;;;;17.20;99.90;;;;;;5073637;28;19904;-81
2021/08/02 00:11:43;;;;;;;;;;;17.40;99.90;;;;;;5073628;28;19904;-80
2021/08/02 00:14:09;;;;;;;;;;;17.50;99.90;;;;;;5073575;28;19904;-80
2021/08/02 00:16:36;;;;;;;;;;;17.60;99.90;;;;;;5073219;28;19917;-81
2021/08/02 00:19:02;;;;;;;;;;;17.60;99.90;;;;;;5073648;28;20257;-80
2021/08/02 00:21:28;;;;;;;;;;;17.60;99.90;;;;;;5072320;28;19936;-80
2021/08/02 00:23:53;;;;;;;;;;;17.80;99.90;;;;;;5073503;28;20422;-81
2021/08/02 00:26:20;;;;;;;;;;;17.70;99.90;;;;;;5073756;28;19904;-81
2021/08/02 00:28:45;;;;;;;;;;;17.60;99.90;;;;;;5073480;28;19905;-81
2021/08/02 00:31:12;;;;;;;;;;;17.50;99.90;;;;;;5073833;28;19913;-81
2021/08/02 00:33:37;;;;;;;;;;;17.70;99.90;;;;;;5073596;28;19999;-80
2021/08/02 00:36:17;;;;;;;;;;;17.70;99.90;;;;;;5073468;28;19999;-80
2021/08/02 00:38:49;;;;;;;;;;;17.70;99.90;;;;;;5071944;28;19908;-80
2021/08/02 00:41:19;;;;;;;;;;;17.80;99.90;;;;;;5073375;28;19905;-80
2021/08/02 00:43:45;;;;;;;;;;;17.80;99.90;;;;;;5073381;28;19912;-80
2021/08/02 00:46:11;;;;;;;;;;;17.50;99.90;;;;;;5073297;28;19904;-80
2021/08/02 00:48:47;;;;;;;;;;;17.40;99.90;;;;;;5073455;28;20372;-81
2021/08/02 00:51:14;;;;;;;;;;;17.60;99.90;;;;;;5071737;28;19912;-80
2021/08/02 00:53:40;;;;;;;;;;;17.60;99.90;;;;;;5071946;28;19904;-81
2021/08/02 00:56:05;;;;;;;;;;;17.80;99.90;;;;;;5073616;28;20356;-80
2021/08/02 00:58:32;;;;;;;;;;;17.80;99.90;;;;;;5073249;28;19904;-80
2021/08/02 01:00:58;;;;;;;;;;;18.00;99.90;;;;;;5073213;28;20272;-81
2021/08/02 01:03:23;;;;;;;;;;;18.00;99.90;;;;;;5073243;28;19911;-81
2021/08/02 01:05:50;;;;;;;;;;;17.90;99.90;;;;;;5073176;28;19912;-81
2021/08/02 01:08:27;;;;;;;;;;;17.90;99.90;;;;;;5073115;28;19905;-81
2021/08/02 01:11:03;;;;;;;;;;;18.00;99.90;;;;;;5073103;28;20342;-80
2021/08/02 01:13:30;;;;;;;;;;;18.00;99.90;;;;;;5073093;28;19911;-80
2021/08/02 01:15:58;;;;;;;;;;;18.00;99.90;;;;;;5072801;28;19920;-80
2021/08/02 01:18:25;;;;;;;;;;;17.90;99.90;;;;;;5072976;28;19904;-80
2021/08/02 01:20:54;;;;;;;;;;;17.80;99.90;;;;;;5073008;28;19904;-81
2021/08/02 01:23:21;;;;;;;;;;;17.60;99.90;;;;;;5073173;28;19908;-80
2021/08/02 01:25:49;;;;;;;;;;;17.70;99.90;;;;;;5075465;28;19904;-81
2021/08/02 01:28:15;;;;;;;;;;;17.80;99.90;;;;;;5075280;28;19904;-80
2021/08/02 01:30:41;;;;;;;;;;;17.70;99.90;;;;;;5076701;28;20288;-81
2021/08/02 01:33:06;;;;;;;;;;;17.60;99.90;;;;;;5076457;28;19912;-80
2021/08/02 01:35:33;;;;;;;;;;;17.60;99.90;;;;;;5076376;28;20054;-80
2021/08/02 01:37:59;;;;;;;;;;;17.60;99.90;;;;;;5076405;28;19911;-80
2021/08/02 01:40:25;;;;;;;;;;;17.60;99.90;;;;;;5076359;28;19911;-81
2021/08/02 01:42:50;;;;;;;;;;;17.60;99.90;;;;;;5076583;28;19904;-81
2021/08/02 01:45:16;;;;;;;;;;;17.60;99.90;;;;;;5076388;28;20357;-81
2021/08/02 01:47:41;;;;;;;;;;;17.30;99.90;;;;;;5076453;28;19904;-80
2021/08/02 01:50:12;;;;;;;;;;;17.20;99.90;;;;;;5076156;28;19911;-80
2021/08/02 01:52:41;;;;;;;;;;;17.10;99.90;;;;;;5076541;28;19943;-80
2021/08/02 01:55:08;;;;;;;;;;;17.10;99.90;;;;;;5076084;28;19955;-80
2021/08/02 01:57:53;;;;;;;;;;;17.50;99.90;;;;;;5074718;28;20375;-80
2021/08/02 02:00:19;;;;;;;;;;;17.50;99.90;;;;;;5075925;28;19904;-80
2021/08/02 02:02:57;;;;;;;;;;;17.30;99.90;;;;;;5076010;28;20376;-80
2021/08/02 02:05:25;;;;;;;;;;;17.40;99.90;;;;;;5076067;28;19942;-81
2021/08/02 02:07:53;;;;;;;;;;;17.40;99.90;;;;;;5074594;28;19904;-80
2021/08/02 02:10:19;;;;;;;;;;;16.80;99.90;;;;;;5075804;28;19905;-80
2021/08/02 02:12:47;;;;;;;;;;;16.90;99.90;;;;;;5076160;28;20325;-81
2021/08/02 02:15:13;;;;;;;;;;;17.10;99.90;;;;;;5075681;28;20018;-80
2021/08/02 02:17:41;;;;;;;;;;;17.20;99.90;;;;;;5075572;28;20467;-81
2021/08/02 02:20:07;;;;;;;;;;;17.30;99.90;;;;;;5075602;28;19915;-81
2021/08/02 02:22:35;;;;;;;;;;;17.10;99.90;;;;;;5075607;28;19995;-81
2021/08/02 02:25:01;;;;;;;;;;;17.20;99.90;;;;;;5075553;28;20360;-81
2021/08/02 02:27:27;;;;;;;;;;;17.20;99.90;;;;;;5074156;28;19958;-80
2021/08/02 02:29:53;;;;;;;;;;;17.30;99.90;;;;;;5075418;28;19908;-81
2021/08/02 02:32:19;;;;;;;;;;;17.20;99.90;;;;;;5075335;28;19987;-81
2021/08/02 02:34:46;;;;;;;;;;;17.40;99.90;;;;;;5075229;28;19908;-80
2021/08/02 02:37:12;;;;;;;;;;;17.30;99.90;;;;;;5075550;28;19905;-80
2021/08/02 02:39:38;;;;;;;;;;;17.20;99.90;;;;;;5075339;28;20258;-80
2021/08/02 02:42:04;;;;;;;;;;;17.30;99.90;;;;;;5075262;28;19904;-80
2021/08/02 02:44:30;;;;;;;;;;;17.30;99.90;;;;;;5075133;28;19905;-81
2021/08/02 02:46:56;;;;;;;;;;;17.10;99.90;;;;;;5075054;28;19904;-80
2021/08/02 02:49:23;;;;;;;;;;;17.00;99.90;;;;;;5075109;28;19911;-81
2021/08/02 02:51:50;;;;;;;;;;;17.20;99.90;;;;;;5074887;28;19905;-81
2021/08/02 02:54:16;;;;;;;;;;;17.30;99.90;;;;;;5073535;28;19904;-80
2021/08/02 02:56:42;;;;;;;;;;;17.50;99.90;;;;;;5074782;28;19904;-80
2021/08/02 02:59:08;;;;;;;;;;;17.50;99.90;;;;;;5074966;28;19904;-80
2021/08/02 03:01:41;;;;;;;;;;;17.40;99.90;;;;;;5074693;28;19911;-80
2021/08/02 03:04:07;;;;;;;;;;;17.50;99.90;;;;;;5074923;28;20263;-81
2021/08/02 03:06:33;;;;;;;;;;;17.40;99.90;;;;;;5074601;28;19958;-81
2021/08/02 03:08:59;;;;;;;;;;;17.40;99.90;;;;;;5074540;28;19905;-80
2021/08/02 03:11:25;;;;;;;;;;;17.00;99.90;;;;;;5074575;28;19908;-81
2021/08/02 03:13:51;;;;;;;;;;;17.00;99.90;;;;;;5074483;28;19965;-81
2021/08/02 03:16:17;;;;;;;;;;;17.30;99.90;;;;;;5074268;28;20373;-80
2021/08/02 03:18:43;;;;;;;;;;;17.30;99.90;;;;;;5074425;28;19942;-81
2021/08/02 03:21:08;;;;;;;;;;;17.30;99.90;;;;;;5074699;28;19959;-80
2021/08/02 03:23:57;;;;;;;;;;;17.30;99.90;;;;;;5074276;28;19904;-81
2021/08/02 03:26:49;;;;;;;;;;;17.30;99.90;;;;;;5071267;28;19909;-81
2021/08/02 03:29:34;;;;;;;;;;;17.30;99.90;;;;;;5065465;28;20383;-81
2021/08/02 03:32:08;;;;;;;;;;;17.10;99.90;;;;;;5072695;28;20266;-81
2021/08/02 03:34:35;;;;;;;;;;;17.20;99.90;;;;;;5074070;28;19953;-80
2021/08/02 03:37:01;;;;;;;;;;;17.20;99.90;;;;;;5074286;28;19904;-81
2021/08/02 03:39:28;;;;;;;;;;;17.10;99.90;;;;;;5074032;28;20007;-81
2021/08/02 03:41:54;;;;;;;;;;;17.10;99.90;;;;;;5074191;28;20288;-80
2021/08/02 03:44:20;;;;;;;;;;;17.20;99.90;;;;;;5074110;28;19904;-80
2021/08/02 03:46:47;;;;;;;;;;;17.10;99.90;;;;;;5073880;28;19904;-81
2021/08/02 03:49:12;;;;;;;;;;;17.10;99.90;;;;;;5073985;28;19904;-81
2021/08/02 03:51:48;;;;;;;;;;;17.00;99.90;;;;;;5073917;28;19992;-80
2021/08/02 03:54:14;;;;;;;;;;;17.10;99.90;;;;;;5073767;28;19904;-81
2021/08/02 03:56:41;;;;;;;;;;;17.10;99.90;;;;;;5073882;28;20349;-80
2021/08/02 03:59:06;;;;;;;;;;;17.00;99.90;;;;;;5074107;28;20272;-81
2021/08/02 04:01:39;;;;;;;;;;;17.10;99.90;;;;;;5073757;28;20089;-81
2021/08/02 04:04:04;;;;;;;;;;;17.20;99.90;;;;;;5073834;28;20359;-80
2021/08/02 04:06:30;;;;;;;;;;;17.30;99.90;;;;;;5073738;28;19904;-81
2021/08/02 04:08:55;;;;;;;;;;;17.40;99.90;;;;;;5074163;28;19939;-81
2021/08/02 04:11:21;;;;;;;;;;;17.40;99.90;;;;;;5073708;28;19904;-81
2021/08/02 04:13:47;;;;;;;;;;;17.40;99.90;;;;;;5073690;28;19904;-80
2021/08/02 04:16:12;;;;;;;;;;;17.40;99.90;;;;;;5073466;28;19921;-81
2021/08/02 04:18:38;;;;;;;;;;;17.40;99.90;;;;;;5074223;28;19904;-80
2021/08/02 04:21:03;;;;;;;;;;;17.20;99.90;;;;;;5073614;28;19904;-81
2021/08/02 04:23:29;;;;;;;;;;;17.10;99.90;;;;;;5073486;28;19904;-80
2021/08/02 04:25:55;;;;;;;;;;;16.90;99.90;;;;;;5073606;28;19905;-81
2021/08/02 04:28:20;;;;;;;;;;;16.80;99.90;;;;;;5073623;28;19905;-80
2021/08/02 04:30:46;;;;;;;;;;;16.80;99.90;;;;;;5073523;28;19908;-80
2021/08/02 04:33:11;;;;;;;;;;;16.80;99.90;;;;;;5073563;28;19999;-81
2021/08/02 04:35:39;;;;;;;;;;;16.70;99.90;;;;;;5072147;28;19908;-81
2021/08/02 04:38:04;;;;;;;;;;;16.70;99.90;;;;;;5072253;28;19999;-81
2021/08/02 04:40:30;;;;;;;;;;;16.70;99.90;;;;;;5073566;28;20348;-80
2021/08/02 04:42:55;;;;;;;;;;;16.90;99.90;;;;;;5073338;28;19904;-80
2021/08/02 04:45:21;;;;;;;;;;;17.00;99.90;;;;;;5073343;28;19912;-81
2021/08/02 04:47:47;;;;;;;;;;;17.20;99.90;;;;;;5072095;28;19904;-81
2021/08/02 04:50:12;;;;;;;;;;;17.10;99.90;;;;;;5073341;28;20364;-81
2021/08/02 04:52:38;;;;;;;;;;;17.00;99.90;;;;;;5073302;28;19908;-81
2021/08/02 04:55:04;;;;;;;;;;;17.00;99.90;;;;;;5073214;28;19932;-81
2021/08/02 04:57:30;;;;;;;;;;;17.10;99.90;;;;;;5073257;28;20360;-81
2021/08/02 04:59:56;;;;;;;;;;;17.30;99.90;;;;;;5074552;28;19943;-80
2021/08/02 05:02:21;;;;;;;;;;;17.20;99.90;;;;;;5077258;28;19912;-81
2021/08/02 05:04:47;;;;;;;;;;;17.30;99.90;;;;;;5077023;28;19904;-81
2021/08/02 05:07:12;;;;;;;;;;;17.20;99.90;;;;;;5076992;28;20269;-80
2021/08/02 05:09:38;;;;;;;;;;;17.20;99.90;;;;;;5076907;28;20304;-80
2021/08/02 05:12:04;;;;;;;;;;;17.30;99.90;;;;;;5076854;28;19930;-81
2021/08/02 05:14:29;;;;;;;;;;;17.30;99.90;;;;;;5076612;28;19904;-81
2021/08/02 05:16:55;;;;;;;;;;;17.40;99.90;;;;;;5077196;28;19901;-80
2021/08/02 05:19:21;;;;;;;;;;;17.50;99.90;;;;;;5076978;28;20007;-80
2021/08/02 05:21:46;;;;;;;;;;;17.50;99.90;;;;;;5076802;28;20360;-81
2021/08/02 05:24:12;;;;;;;;;;;17.50;99.90;;;;;;5076600;28;19955;-80
2021/08/02 05:26:37;;;;;;;;;;;17.50;99.90;;;;;;5076619;28;19910;-81
2021/08/02 05:29:03;;;;;;;;;;;17.20;99.90;;;;;;5076663;28;20369;-80
2021/08/02 05:31:28;;;;;;;;;;;17.10;99.90;;;;;;5076937;28;19940;-80
2021/08/02 05:33:54;;;;;;;;;;;17.20;99.90;;;;;;5076484;28;19904;-81
2021/08/02 05:36:20;;;;;;;;;;;17.20;99.90;;;;;;5076356;28;19969;-80
2021/08/02 05:38:45;;;;;;;;;;;17.00;99.90;;;;;;5076382;28;19904;-81
2021/08/02 05:41:11;;;;;;;;;;;17.20;99.90;;;;;;5076597;28;19910;-81
2021/08/02 05:43:37;;;;;;;;;;;17.30;99.90;;;;;;5076295;28;19905;-81
2021/08/02 05:46:03;;;;;;;;;;;17.40;99.90;;;;;;5076244;28;19908;-80
2021/08/02 05:48:28;;;;;;;;;;;17.40;99.90;;;;;;5076172;28;19991;-81
2021/08/02 05:50:54;;;;;;;;;;;17.50;99.90;;;;;;5076160;28;19904;-81
2021/08/02 05:53:19;;;;;;;;;;;17.30;99.90;;;;;;5076056;28;19905;-81
2021/08/02 05:55:45;;;;;;;;;;;17.30;99.90;;;;;;5076062;28;19909;-81
2021/08/02 05:58:11;;;;;;;;;;;17.30;99.90;;;;;;5076190;28;19936;-81
2021/08/02 06:00:38;;;;;;;;;;;17.40;99.90;;;;;;5076549;28;19905;-82
2021/08/02 06:03:04;;;;;;;;;;;17.20;99.90;;;;;;5076126;28;19908;-81
2021/08/02 06:05:30;;;;;;;;;;;17.10;99.90;;;;;;5076047;28;19910;-80
2021/08/02 06:07:56;;;;;;;;;;;17.10;99.90;;;;;;5075887;28;19904;-81
2021/08/02 06:10:21;;;;;;;;;;;17.00;99.90;;;;;;5075365;28;19953;-81
2021/08/02 06:12:47;;;;;;;;;;;17.20;99.90;;;;;;5075973;28;19931;-80
2021/08/02 06:15:15;;;;;;;;;;;17.10;99.90;;;;;;5075459;28;19921;-81
2021/08/02 06:17:40;;;;;;;;;;;17.20;99.90;;;;;;5075781;28;19908;-81
2021/08/02 06:20:06;;;;;;;;;;;17.30;99.90;;;;;;5075633;28;19949;-81
2021/08/02 06:22:32;;;;;;;;;;;17.50;99.90;;;;;;5075585;28;20395;-80
2021/08/02 06:24:57;;;;;;;;;;;17.60;99.90;;;;;;5075641;28;19911;-81
2021/08/02 06:27:23;;;;;;;;;;;17.60;99.90;;;;;;5075491;28;19908;-80
2021/08/02 06:29:49;;;;;;;;;;;17.60;99.90;;;;;;5075448;28;19911;-81
2021/08/02 06:32:15;;;;;;;;;;;17.70;99.90;;;;;;5075342;28;20280;-80
2021/08/02 06:34:40;;;;;;;;;;;17.40;99.90;;;;;;5073887;28;19915;-81
2021/08/02 06:37:06;;;;;;;;;;;17.60;99.90;;;;;;5073989;28;19905;-80
2021/08/02 06:39:31;;;;;;;;;;;17.80;99.90;;;;;;5075233;28;19904;-81
2021/08/02 06:41:57;;;;;;;;;;;18.00;99.90;;;;;;5073866;28;19967;-81
2021/08/02 06:44:23;;;;;;;;;;;18.00;99.90;;;;;;5075318;28;20319;-81
2021/08/02 06:46:48;;;;;;;;;;;18.40;99.90;;;;;;5073807;28;20318;-81
2021/08/02 06:49:14;;;;;;;;;;;18.80;99.90;;;;;;5075291;28;19904;-81
2021/08/02 06:51:39;;;;;;;;;;;19.00;99.90;;;;;;5075067;28;20290;-81
2021/08/02 06:54:05;;;;;;;;;;;18.90;99.90;;;;;;5074951;28;19905;-81
2021/08/02 06:56:31;;;;;;;;;;;19.10;99.90;;;;;;5074803;28;19908;-82
2021/08/02 06:58:56;;;;;;;;;;;19.30;99.90;;;;;;5074963;28;19970;-80
2021/08/02 07:01:22;;;;;;;;;;;19.50;99.90;;;;;;5073407;28;19912;-81
2021/08/02 07:03:47;;;;;;;;;;;19.60;99.90;;;;;;5074671;28;19935;-82
2021/08/02 07:06:13;;;;;;;;;;;19.40;99.90;;;;;;5075100;28;19915;-81
2021/08/02 07:08:39;;;;;;;;;;;19.50;99.90;;;;;;5074636;28;19905;-81
2021/08/02 07:11:07;;;;;;;;;;;19.30;99.90;;;;;;5074547;28;19908;-81
2021/08/02 07:13:34;;;;;;;;;;;19.50;99.90;;;;;;5074619;28;20432;-82
2021/08/02 07:16:00;;;;;;;;;;;19.50;99.90;;;;;;5072965;28;19966;-81
2021/08/02 07:18:32;;;;;;;;;;;19.60;99.90;;;;;;5073118;28;20357;-81
2021/08/02 07:20:58;;;;;;;;;;;19.70;99.90;;;;;;5074376;28;19908;-81
2021/08/02 07:23:23;;;;;;;;;;;19.80;99.90;;;;;;5073458;28;20381;-80
2021/08/02 07:25:49;;;;;;;;;;;19.60;99.90;;;;;;5074137;28;19994;-81
2021/08/02 07:28:15;;;;;;;;;;;19.70;99.90;;;;;;5074259;28;19904;-81
2021/08/02 07:30:40;;;;;;;;;;;19.70;99.90;;;;;;5074313;28;19905;-81
2021/08/02 07:33:06;;;;;;;;;;;20.30;99.90;;;;;;5074273;28;20298;-81
2021/08/02 07:35:31;;;;;;;;;;;20.30;99.90;;;;;;5074163;28;19915;-81
2021/08/02 07:37:57;;;;;;;;;;;20.50;99.90;;;;;;5074120;28;19904;-81
2021/08/02 07:40:23;;;;;;;;;;;20.40;99.90;;;;;;5074264;28;19915;-81
2021/08/02 07:42:48;;;;;;;;;;;20.50;99.90;;;;;;5074037;28;19970;-81
2021/08/02 07:45:14;;;;;;;;;;;20.50;99.90;;;;;;5073992;28;20002;-81
2021/08/02 07:47:40;;;;;;;;;;;20.60;99.90;;;;;;5073961;28;19911;-82
2021/08/02 07:50:07;;;;;;;;;;;20.90;99.90;;;;;;5073934;28;19904;-81
2021/08/02 07:52:33;;;;;;;;;;;21.20;99.90;;;;;;5074190;28;20088;-82
2021/08/02 07:55:00;;;;;;;;;;;21.10;99.90;;;;;;5073850;28;19912;-81
2021/08/02 07:57:25;;;;;;;;;;;21.30;99.90;;;;;;5073852;28;19905;-81
2021/08/02 07:59:51;;;;;;;;;;;21.30;99.90;;;;;;5073816;28;19904;-82
2021/08/02 08:02:17;;;;;;;;;;;21.60;99.90;;;;;;5073776;28;19957;-81
2021/08/02 08:04:42;;;;;;;;;;;21.80;99.90;;;;;;5073886;28;20498;-81
2021/08/02 08:07:08;;;;;;;;;;;22.00;99.90;;;;;;5073790;28;19904;-82
2021/08/02 08:09:34;;;;;;;;;;;22.20;99.90;;;;;;5073719;28;19904;-81
2021/08/02 08:12:00;;;;;;;;;;;22.40;99.90;;;;;;5073676;28;20319;-81
2021/08/02 08:14:25;;;;;;;;;;;22.90;99.90;;;;;;5073439;28;19961;-81
2021/08/02 08:16:51;;;;;;;;;;;23.10;99.90;;;;;;5073594;28;19951;-81
2021/08/02 08:19:17;;;;;;;;;;;22.90;99.90;;;;;;5073617;28;19950;-81
2021/08/02 08:21:42;;;;;;;;;;;22.50;99.90;;;;;;5073600;28;20007;-82
2021/08/02 08:24:08;;;;;;;;;;;22.70;99.90;;;;;;5073518;28;19958;-81
2021/08/02 08:26:36;;;;;;;;;;;22.80;99.90;;;;;;5072230;28;19911;-81
2021/08/02 08:29:03;;;;;;;;;;;22.90;99.90;;;;;;5072277;28;20280;-82
2021/08/02 08:31:29;;;;;;;;;;;22.50;99.90;;;;;;5073518;28;19940;-82
2021/08/02 08:33:55;;;;;;;;;;;22.80;99.90;;;;;;5074832;28;19904;-81
2021/08/02 08:36:21;;;;;;;;;;;23.20;99.90;;;;;;5076209;28;19995;-81
2021/08/02 08:38:47;;;;;;;;;;;23.40;99.90;;;;;;5077536;28;19939;-81
2021/08/02 08:41:13;;;;;;;;;;;23.90;99.90;;;;;;5077494;28;19943;-82
2021/08/02 08:43:39;;;;;;;;;;;24.00;99.90;;;;;;5077501;28;19935;-81
2021/08/02 08:46:05;;;;;;;;;;;24.30;98.80;;;;;;5077335;28;19957;-82
2021/08/02 08:48:31;;;;;;;;;;;24.50;98.40;;;;;;5076049;28;19999;-81
2021/08/02 08:50:57;;;;;;;;;;;24.00;98.80;;;;;;5077673;28;19904;-82
2021/08/02 08:53:22;;;;;;;;;;;23.90;99.10;;;;;;5075969;28;19966;-81
2021/08/02 08:55:48;;;;;;;;;;;23.60;99.40;;;;;;5077125;28;19908;-82
2021/08/02 08:58:14;;;;;;;;;;;23.80;99.90;;;;;;5077134;28;19911;-82
2021/08/02 09:00:40;;;;;;;;;;;23.80;99.80;;;;;;5077027;28;19963;-82
2021/08/02 09:03:15;;;;;;;;;;;24.00;99.10;;;;;;5077017;28;19904;-80
2021/08/02 09:05:42;;;;;;;;;;;23.60;99.40;;;;;;5077065;28;19954;-82
2021/08/02 09:08:12;;;;;;;;;;;23.60;99.90;;;;;;5076933;28;20002;-81
2021/08/02 09:10:38;;;;;;;;;;;23.90;99.70;;;;;;5077299;28;19950;-82
2021/08/02 09:13:05;;;;;;;;;;;24.10;99.20;;;;;;5076751;28;19904;-82
2021/08/02 09:15:32;;;;;;;;;;;23.80;98.60;;;;;;5076408;28;19916;-81
2021/08/02 09:17:57;;;;;;;;;;;23.70;99.60;;;;;;5076588;28;19905;-82
2021/08/02 09:20:24;;;;;;;;;;;24.00;98.70;;;;;;5077013;28;20419;-82
2021/08/02 09:22:50;;;;;;;;;;;25.30;98.10;;;;;;5076834;28;20321;-82
2021/08/02 09:25:19;;;;;;;;;;;26.90;94.80;;;;;;5076518;28;20332;-83
2021/08/02 09:27:44;;;;;;;;;;;27.70;93.80;;;;;;5075191;28;20288;-82
2021/08/02 09:30:11;;;;;;;;;;;26.90;93.60;;;;;;5076914;28;19905;-82
2021/08/02 09:32:45;;;;;;;;;;;27.00;93.30;;;;;;5076559;28;20352;-82
2021/08/02 09:35:11;;;;;;;;;;;27.10;92.80;;;;;;5076446;28;19912;-82
2021/08/02 09:37:36;;;;;;;;;;;26.40;92.00;;;;;;5076394;28;20276;-82
2021/08/02 09:40:06;;;;;;;;;;;26.90;92.30;;;;;;5076710;28;19904;-82
2021/08/02 09:42:31;;;;;;;;;;;26.80;92.10;;;;;;5076579;28;19911;-81
2021/08/02 09:45:01;;;;;;;;;;;24.70;93.50;;;;;;5075770;28;20003;-82
2021/08/02 09:47:27;;;;;;;;;;;23.50;95.10;;;;;;5076019;28;20006;-82
2021/08/02 09:49:53;;;;;;;;;;;23.40;97.50;;;;;;5074792;28;19904;-82
2021/08/02 09:52:20;;;;;;;;;;;24.20;97.10;;;;;;5076178;28;19905;-82
2021/08/02 09:54:45;;;;;;;;;;;23.90;96.60;;;;;;5076026;28;19908;-81
2021/08/02 09:57:11;;;;;;;;;;;24.50;96.30;;;;;;5076120;28;20336;-81
2021/08/02 09:59:42;;;;;;;;;;;24.50;95.50;;;;;;5076069;28;19904;-82
2021/08/02 10:02:08;;;;;;;;;;;24.50;96.90;;;;;;5076166;28;19912;-82
2021/08/02 10:04:34;;;;;;;;;;;23.90;96.00;;;;;;5075888;28;19908;-83
2021/08/02 10:06:59;;;;;;;;;;;24.40;96.90;;;;;;5076073;28;20425;-82
2021/08/02 10:09:28;;;;;;;;;;;24.30;96.20;;;;;;5076337;28;19905;-83
2021/08/02 10:11:57;;;;;;;;;;;24.50;94.40;;;;;;5074520;28;19908;-82
2021/08/02 10:14:30;;;;;;;;;;;24.40;95.20;;;;;;5075493;28;19920;-81
2021/08/02 10:16:58;;;;;;;;;;;24.70;95.90;;;;;;5075846;28;20323;-82
2021/08/02 10:19:34;;;;;;;;;;;24.80;94.90;;;;;;5075610;28;19908;-82
2021/08/02 10:22:00;;;;;;;;;;;23.80;96.30;;;;;;5075700;28;20312;-82
2021/08/02 10:24:25;;;;;;;;;;;24.50;95.80;;;;;;5075529;28;19918;-82
2021/08/02 10:26:56;;;;;;;;;;;24.80;94.90;;;;;;5075598;28;20007;-82
2021/08/02 10:29:22;;;;;;;;;;;25.10;94.60;;;;;;5075698;28;20323;-81
2021/08/02 10:31:53;;;;;;;;;;;24.30;94.40;;;;;;5075410;28;19905;-82
2021/08/02 10:34:18;;;;;;;;;;;23.50;95.70;;;;;;5073839;28;19912;-81
2021/08/02 10:37:04;;;;;;;;;;;23.70;95.70;;;;;;5075402;28;19908;-81
2021/08/02 10:39:31;;;;;;;;;;;23.70;96.60;;;;;;5074916;28;19911;-82
2021/08/02 10:42:23;;;;;;;;;;;24.30;96.20;;;;;;5075184;28;19904;-82
2021/08/02 10:44:53;;;;;;;;;;;24.10;95.20;;;;;;5074055;28;19987;-82
2021/08/02 10:47:18;;;;;;;;;;;23.90;94.30;;;;;;5075122;28;19904;-81
2021/08/02 10:49:52;;;;;;;;;;;23.70;94.60;;;;;;5075098;28;19913;-81
2021/08/02 10:52:25;;;;;;;;;;;23.70;94.80;;;;;;5074976;28;20431;-81
2021/08/02 10:54:51;;;;;;;;;;;23.40;95.20;;;;;;5075144;28;19951;-82
2021/08/02 10:57:16;;;;;;;;;;;24.60;94.50;;;;;;5073911;28;19989;-81
2021/08/02 10:59:42;;;;;;;;;;;25.40;92.60;;;;;;5074869;28;19988;-81
2021/08/02 11:02:09;;;;;;;;;;;25.70;90.80;;;;;;5074844;28;19995;-82
2021/08/02 11:04:35;;;;;;;;;;;24.70;91.30;;;;;;5074937;28;19904;-82
2021/08/02 11:07:01;;;;;;;;;;;25.20;92.00;;;;;;5074659;28;19912;-82
2021/08/02 11:09:28;;;;;;;;;;;24.70;91.80;;;;;;5073375;28;19909;-82
2021/08/02 11:12:14;;;;;;;;;;;25.30;92.30;;;;;;5074603;28;19934;-82
2021/08/02 11:14:50;;;;;;;;;;;26.20;90.40;;;;;;5072916;28;19911;-82
2021/08/02 11:17:23;;;;;;;;;;;27.70;83.40;;;;;;5074649;28;20348;-82
2021/08/02 11:20:02;;;;;;;;;;;27.70;78.60;;;;;;5073195;28;20377;-82
2021/08/02 11:22:28;;;;;;;;;;;26.30;84.40;;;;;;5073152;28;19905;-82
2021/08/02 11:24:55;;;;;;;;;;;26.50;84.70;;;;;;5074321;28;19926;-82
2021/08/02 11:27:21;;;;;;;;;;;24.80;87.70;;;;;;5074345;28;20258;-82
2021/08/02 11:29:50;;;;;;;;;;;24.50;91.50;;;;;;5074261;28;19905;-82
2021/08/02 11:32:15;;;;;;;;;;;24.80;91.80;;;;;;5074511;28;19904;-83
2021/08/02 11:34:42;;;;;;;;;;;24.20;91.60;;;;;;5072869;28;20279;-81
2021/08/02 11:37:12;;;;;;;;;;;24.30;92.10;;;;;;5074163;28;20030;-81
2021/08/02 11:39:39;;;;;;;;;;;24.70;93.20;;;;;;5072747;28;19904;-82
2021/08/02 11:42:09;;;;;;;;;;;24.80;92.10;;;;;;5073934;28;19935;-82
2021/08/02 11:44:35;;;;;;;;;;;24.80;93.40;;;;;;5073798;28;19904;-82
2021/08/02 11:47:02;;;;;;;;;;;24.40;94.90;;;;;;5073653;28;19912;-82
2021/08/02 11:49:28;;;;;;;;;;;24.10;95.20;;;;;;5073885;28;19954;-81
2021/08/02 11:51:56;;;;;;;;;;;24.10;95.80;;;;;;5074330;28;19959;-82
2021/08/02 11:54:23;;;;;;;;;;;24.60;94.90;;;;;;5073945;28;20357;-82
2021/08/02 11:56:49;;;;;;;;;;;25.10;94.70;;;;;;5073890;28;20008;-81
2021/08/02 11:59:19;;;;;;;;;;;24.90;94.60;;;;;;5072562;28;19998;-81
2021/08/02 12:01:49;;;;;;;;;;;25.20;94.60;;;;;;5073816;28;20375;-82
2021/08/02 12:04:15;;;;;;;;;;;25.40;93.90;;;;;;5073797;28;19959;-81
2021/08/02 12:06:48;;;;;;;;;;;25.80;93.00;;;;;;5074087;28;19943;-81
2021/08/02 12:09:14;;;;;;;;;;;26.10;92.70;;;;;;5073431;28;19908;-81
2021/08/02 12:11:41;;;;;;;;;;;25.90;92.80;;;;;;5073784;28;19949;-82
2021/08/02 12:14:06;;;;;;;;;;;26.00;92.20;;;;;;5073992;28;19905;-81
2021/08/02 12:16:33;;;;;;;;;;;26.10;91.90;;;;;;5073083;28;19916;-82
2021/08/02 12:19:06;;;;;;;;;;;26.40;91.60;;;;;;5073632;28;19904;-82
2021/08/02 12:21:33;;;;;;;;;;;26.80;89.40;;;;;;5073650;28;19999;-82
2021/08/02 12:24:08;;;;;;;;;;;27.00;85.80;;;;;;5073518;28;20357;-82
2021/08/02 12:26:35;;;;;;;;;;;27.70;85.20;;;;;;5073654;28;20289;-82
2021/08/02 12:29:01;;;;;;;;;;;28.30;84.30;;;;;;5072260;28;19958;-82
2021/08/02 12:31:27;;;;;;;;;;;28.50;81.00;;;;;;5073528;28;20386;-82
2021/08/02 12:33:53;;;;;;;;;;;28.60;80.80;;;;;;5072179;28;20441;-82
2021/08/02 12:36:19;;;;;;;;;;;28.70;79.90;;;;;;5072117;28;19908;-82
2021/08/02 12:38:45;;;;;;;;;;;29.00;79.70;;;;;;5073572;28;19953;-82
2021/08/02 12:41:11;;;;;;;;;;;28.90;77.60;;;;;;5072127;28;19904;-82
2021/08/02 12:43:37;;;;;;;;;;;28.00;79.00;;;;;;5072076;28;20326;-82
2021/08/02 12:46:02;;;;;;;;;;;27.40;82.70;;;;;;5073677;28;19908;-82
2021/08/02 12:48:28;;;;;;;;;;;27.30;81.20;;;;;;5073307;28;20263;-82
2021/08/02 12:50:54;;;;;;;;;;;27.10;82.60;;;;;;5073571;28;19958;-82
2021/08/02 12:53:19;;;;;;;;;;;26.60;83.60;;;;;;5073397;28;20262;-82
2021/08/02 12:55:45;;;;;;;;;;;26.30;85.40;;;;;;5073074;28;19999;-81
2021/08/02 12:58:12;;;;;;;;;;;26.00;86.40;;;;;;5073218;28;20422;-82
2021/08/02 13:00:37;;;;;;;;;;;25.80;86.30;;;;;;5073256;28;19904;-82
2021/08/02 13:03:06;;;;;;;;;;;25.20;89.20;;;;;;5073357;28;20261;-81
2021/08/02 13:05:31;;;;;;;;;;;24.70;90.90;;;;;;5073461;28;20010;-81
2021/08/02 13:07:57;;;;;;;;;;;24.40;92.20;;;;;;5073142;28;19936;-81
2021/08/02 13:10:22;;;;;;;;;;;24.10;92.60;;;;;;5073110;28;19947;-82
2021/08/02 13:12:48;;;;;;;;;;;23.70;93.20;;;;;;5073263;28;20349;-81
2021/08/02 13:15:14;;;;;;;;;;;23.10;94.50;;;;;;5072853;28;19916;-82
2021/08/02 13:17:39;;;;;;;;;;;23.10;95.20;;;;;;5071846;28;19904;-80
2021/08/02 13:20:05;;;;;;;;;;;22.80;96.90;;;;;;5072968;28;19905;-81
2021/08/02 13:22:45;;;;;;;;;;;22.90;98.80;;;;;;5077091;28;19905;-81
2021/08/02 13:27:56;;;;;;;;;;;23.10;98.70;;;;;;5076776;28;19990;-81
2021/08/02 13:30:22;;;;;;;;;;;23.10;99.70;;;;;;5075306;28;19926;-81
2021/08/02 13:32:47;;;;;;;;;;;22.80;99.90;;;;;;5076714;28;20368;-81
2021/08/02 13:35:13;;;;;;;;;;;23.20;98.90;;;;;;5076666;28;19913;-82
2021/08/02 13:37:39;;;;;;;;;;;23.50;98.60;;;;;;5076518;28;19904;-81
2021/08/02 13:40:05;;;;;;;;;;;23.50;97.90;;;;;;5076392;28;19983;-82
2021/08/02 13:42:30;;;;;;;;;;;23.80;99.00;;;;;;5076345;28;19950;-82
2021/08/02 13:44:56;;;;;;;;;;;24.10;97.90;;;;;;5076350;28;19911;-82
2021/08/02 13:47:21;;;;;;;;;;;24.10;96.80;;;;;;5076271;28;19940;-81
2021/08/02 13:49:47;;;;;;;;;;;24.60;96.20;;;;;;5074966;28;19928;-82
2021/08/02 13:52:13;;;;;;;;;;;25.10;95.40;;;;;;5076215;28;19909;-81
2021/08/02 13:54:38;;;;;;;;;;;25.40;93.90;;;;;;5076061;28;19904;-82
2021/08/02 13:57:04;;;;;;;;;;;24.80;92.00;;;;;;5076408;28;19912;-81
2021/08/02 13:59:29;;;;;;;;;;;24.90;93.40;;;;;;5076246;28;19905;-82
2021/08/02 14:01:55;;;;;;;;;;;25.10;92.40;;;;;;5075965;28;20388;-82
2021/08/02 14:04:21;;;;;;;;;;;25.30;90.80;;;;;;5075846;28;19904;-82
2021/08/02 14:06:46;;;;;;;;;;;25.80;90.80;;;;;;5075896;28;19992;-82
2021/08/02 14:09:12;;;;;;;;;;;26.30;90.20;;;;;;5075807;28;19905;-82
2021/08/02 14:11:46;;;;;;;;;;;26.60;85.90;;;;;;5075847;28;19995;-82
2021/08/02 14:14:11;;;;;;;;;;;26.50;84.30;;;;;;5075795;28;19911;-82
2021/08/02 14:16:38;;;;;;;;;;;26.40;85.30;;;;;;5075204;28;20015;-83
2021/08/02 14:19:13;;;;;;;;;;;26.70;86.10;;;;;;5075972;28;19995;-82